sensor_id;sensor_type;location;lat;lon;timestamp;P1;durP1;ratioP1;P2;durP2;ratioP2
68192;SDS011;55012;47.562;18.414;2023-03-01T00:01:05;26.27;;;11.63;;
68192;SDS011;55012;47.562;18.414;2023-03-01T00:03:32;26.92;;;10.75;;
68192;SDS011;55012;47.562;18.414;2023-03-01T00:05:58;23.10;;;10.55;;
68192;SDS011;55012;47.562;18.414;2023-03-01T00:08:24;21.33;;;10.52;;
68192;SDS011;55012;47.562;18.414;2023-03-01T00:10:59;23.08;;;10.75;;
68192;SDS011;55012;47.562;18.414;2023-03-01T00:13:30;23.23;;;10.77;;
68192;SDS011;55012;47.562;18.414;2023-03-01T00:15:56;26.23;;;11.07;;
68192;SDS011;55012;47.562;18.414;2023-03-01T00:18:22;23.85;;;11.00;;
68192;SDS011;55012;47.562;18.414;2023-03-01T00:20:49;26.38;;;11.38;;
68192;SDS011;55012;47.562;18.414;2023-03-01T00:23:18;26.35;;;11.68;;
68192;SDS011;55012;47.562;18.414;2023-03-01T00:25:44;27.90;;;12.70;;
68192;SDS011;55012;47.562;18.414;2023-03-01T00:28:10;28.92;;;13.32;;
68192;SDS011;55012;47.562;18.414;2023-03-01T00:30:36;26.73;;;12.32;;
68192;SDS011;55012;47.562;18.414;2023-03-01T00:33:01;28.45;;;13.27;;
68192;SDS011;55012;47.562;18.414;2023-03-01T00:35:27;25.60;;;12.73;;
68192;SDS011;55012;47.562;18.414;2023-03-01T00:37:52;28.73;;;13.20;;
68192;SDS011;55012;47.562;18.414;2023-03-01T00:40:25;28.27;;;12.25;;
68192;SDS011;55012;47.562;18.414;2023-03-01T00:42:52;25.35;;;11.68;;
68192;SDS011;55012;47.562;18.414;2023-03-01T00:45:17;29.15;;;11.88;;
68192;SDS011;55012;47.562;18.414;2023-03-01T00:47:43;29.80;;;12.65;;
68192;SDS011;55012;47.562;18.414;2023-03-01T00:50:09;29.20;;;12.48;;
68192;SDS011;55012;47.562;18.414;2023-03-01T00:52:36;28.90;;;13.18;;
68192;SDS011;55012;47.562;18.414;2023-03-01T00:55:01;25.85;;;12.40;;
68192;SDS011;55012;47.562;18.414;2023-03-01T00:57:27;27.05;;;12.32;;
68192;SDS011;55012;47.562;18.414;2023-03-01T00:59:52;25.60;;;12.13;;
68192;SDS011;55012;47.562;18.414;2023-03-01T01:02:18;25.90;;;12.70;;
68192;SDS011;55012;47.562;18.414;2023-03-01T01:04:44;29.63;;;13.50;;
68192;SDS011;55012;47.562;18.414;2023-03-01T01:07:10;27.90;;;13.07;;
68192;SDS011;55012;47.562;18.414;2023-03-01T01:09:36;25.65;;;11.82;;
68192;SDS011;55012;47.562;18.414;2023-03-01T01:12:02;27.48;;;12.90;;
68192;SDS011;55012;47.562;18.414;2023-03-01T01:14:28;26.30;;;12.15;;
68192;SDS011;55012;47.562;18.414;2023-03-01T01:16:53;27.77;;;11.88;;
68192;SDS011;55012;47.562;18.414;2023-03-01T01:19:19;28.48;;;12.68;;
68192;SDS011;55012;47.562;18.414;2023-03-01T01:21:45;30.02;;;14.98;;
68192;SDS011;55012;47.562;18.414;2023-03-01T01:24:11;25.65;;;12.27;;
68192;SDS011;55012;47.562;18.414;2023-03-01T01:26:37;31.38;;;13.32;;
68192;SDS011;55012;47.562;18.414;2023-03-01T01:29:03;27.73;;;12.35;;
68192;SDS011;55012;47.562;18.414;2023-03-01T01:31:30;25.65;;;12.63;;
68192;SDS011;55012;47.562;18.414;2023-03-01T01:33:57;29.05;;;12.32;;
68192;SDS011;55012;47.562;18.414;2023-03-01T01:36:24;28.83;;;12.43;;
68192;SDS011;55012;47.562;18.414;2023-03-01T01:38:49;26.10;;;12.75;;
68192;SDS011;55012;47.562;18.414;2023-03-01T01:41:15;29.50;;;12.52;;
68192;SDS011;55012;47.562;18.414;2023-03-01T01:43:43;25.20;;;11.88;;
68192;SDS011;55012;47.562;18.414;2023-03-01T01:46:28;24.77;;;11.02;;
68192;SDS011;55012;47.562;18.414;2023-03-01T01:49:00;24.83;;;11.27;;
68192;SDS011;55012;47.562;18.414;2023-03-01T01:51:30;23.83;;;10.77;;
68192;SDS011;55012;47.562;18.414;2023-03-01T01:54:03;23.50;;;11.30;;
68192;SDS011;55012;47.562;18.414;2023-03-01T01:56:46;26.15;;;11.45;;
68192;SDS011;55012;47.562;18.414;2023-03-01T01:59:17;25.23;;;11.00;;
68192;SDS011;55012;47.562;18.414;2023-03-01T02:01:43;24.65;;;10.45;;
68192;SDS011;55012;47.562;18.414;2023-03-01T02:04:09;27.08;;;12.25;;
68192;SDS011;55012;47.562;18.414;2023-03-01T02:06:38;26.45;;;12.18;;
68192;SDS011;55012;47.562;18.414;2023-03-01T02:09:08;22.92;;;11.10;;
68192;SDS011;55012;47.562;18.414;2023-03-01T02:11:39;25.33;;;11.57;;
68192;SDS011;55012;47.562;18.414;2023-03-01T02:14:05;28.00;;;12.75;;
68192;SDS011;55012;47.562;18.414;2023-03-01T02:16:31;26.02;;;12.35;;
68192;SDS011;55012;47.562;18.414;2023-03-01T02:18:57;28.92;;;12.98;;
68192;SDS011;55012;47.562;18.414;2023-03-01T02:21:33;30.40;;;13.13;;
68192;SDS011;55012;47.562;18.414;2023-03-01T02:24:41;24.90;;;11.35;;
68192;SDS011;55012;47.562;18.414;2023-03-01T02:27:08;25.90;;;11.55;;
68192;SDS011;55012;47.562;18.414;2023-03-01T02:29:34;26.02;;;11.13;;
68192;SDS011;55012;47.562;18.414;2023-03-01T02:32:00;25.38;;;11.18;;
68192;SDS011;55012;47.562;18.414;2023-03-01T02:34:28;23.67;;;10.43;;
68192;SDS011;55012;47.562;18.414;2023-03-01T02:37:00;25.15;;;10.88;;
68192;SDS011;55012;47.562;18.414;2023-03-01T02:39:46;24.88;;;10.55;;
68192;SDS011;55012;47.562;18.414;2023-03-01T02:42:16;25.88;;;11.48;;
68192;SDS011;55012;47.562;18.414;2023-03-01T02:44:48;23.80;;;10.85;;
68192;SDS011;55012;47.562;18.414;2023-03-01T02:47:14;24.15;;;10.95;;
68192;SDS011;55012;47.562;18.414;2023-03-01T02:49:40;24.50;;;11.30;;
68192;SDS011;55012;47.562;18.414;2023-03-01T02:57:07;21.88;;;9.85;;
68192;SDS011;55012;47.562;18.414;2023-03-01T02:59:34;22.50;;;10.48;;
68192;SDS011;55012;47.562;18.414;2023-03-01T03:02:07;23.25;;;10.75;;
68192;SDS011;55012;47.562;18.414;2023-03-01T03:04:45;22.55;;;10.55;;
68192;SDS011;55012;47.562;18.414;2023-03-01T03:07:11;29.77;;;12.65;;
68192;SDS011;55012;47.562;18.414;2023-03-01T03:09:37;24.92;;;11.73;;
68192;SDS011;55012;47.562;18.414;2023-03-01T03:12:02;24.60;;;11.13;;
68192;SDS011;55012;47.562;18.414;2023-03-01T03:14:28;23.42;;;10.68;;
68192;SDS011;55012;47.562;18.414;2023-03-01T03:16:53;21.88;;;10.05;;
68192;SDS011;55012;47.562;18.414;2023-03-01T03:19:19;23.60;;;10.68;;
68192;SDS011;55012;47.562;18.414;2023-03-01T03:21:45;23.88;;;10.55;;
68192;SDS011;55012;47.562;18.414;2023-03-01T03:24:11;21.65;;;10.30;;
68192;SDS011;55012;47.562;18.414;2023-03-01T03:26:36;22.33;;;10.63;;
68192;SDS011;55012;47.562;18.414;2023-03-01T03:29:02;28.38;;;10.82;;
68192;SDS011;55012;47.562;18.414;2023-03-01T03:31:27;24.92;;;11.50;;
68192;SDS011;55012;47.562;18.414;2023-03-01T03:33:53;25.42;;;11.70;;
68192;SDS011;55012;47.562;18.414;2023-03-01T03:36:20;26.85;;;11.82;;
68192;SDS011;55012;47.562;18.414;2023-03-01T03:38:47;27.15;;;12.60;;
68192;SDS011;55012;47.562;18.414;2023-03-01T03:41:13;27.63;;;11.77;;
68192;SDS011;55012;47.562;18.414;2023-03-01T03:43:39;27.42;;;12.65;;
68192;SDS011;55012;47.562;18.414;2023-03-01T03:46:07;28.92;;;12.77;;
68192;SDS011;55012;47.562;18.414;2023-03-01T03:48:38;25.98;;;12.27;;
68192;SDS011;55012;47.562;18.414;2023-03-01T03:51:05;30.08;;;13.02;;
68192;SDS011;55012;47.562;18.414;2023-03-01T03:53:31;28.80;;;13.30;;
68192;SDS011;55012;47.562;18.414;2023-03-01T03:55:57;27.50;;;12.82;;
68192;SDS011;55012;47.562;18.414;2023-03-01T03:58:24;27.67;;;12.63;;
68192;SDS011;55012;47.562;18.414;2023-03-01T04:00:51;28.35;;;12.88;;
68192;SDS011;55012;47.562;18.414;2023-03-01T04:03:19;27.63;;;13.02;;
68192;SDS011;55012;47.562;18.414;2023-03-01T04:05:45;27.23;;;12.68;;
68192;SDS011;55012;47.562;18.414;2023-03-01T04:08:11;27.65;;;12.95;;
68192;SDS011;55012;47.562;18.414;2023-03-01T04:10:39;23.92;;;12.10;;
68192;SDS011;55012;47.562;18.414;2023-03-01T04:13:13;28.23;;;12.38;;
68192;SDS011;55012;47.562;18.414;2023-03-01T04:15:40;28.05;;;12.98;;
68192;SDS011;55012;47.562;18.414;2023-03-01T04:18:08;29.95;;;12.38;;
68192;SDS011;55012;47.562;18.414;2023-03-01T04:20:36;25.65;;;12.30;;
68192;SDS011;55012;47.562;18.414;2023-03-01T04:23:03;26.35;;;12.40;;
68192;SDS011;55012;47.562;18.414;2023-03-01T04:25:57;30.15;;;12.13;;
68192;SDS011;55012;47.562;18.414;2023-03-01T04:28:24;26.95;;;12.20;;
68192;SDS011;55012;47.562;18.414;2023-03-01T04:30:54;25.92;;;12.57;;
68192;SDS011;55012;47.562;18.414;2023-03-01T04:33:21;28.80;;;12.50;;
68192;SDS011;55012;47.562;18.414;2023-03-01T04:35:46;28.52;;;12.90;;
68192;SDS011;55012;47.562;18.414;2023-03-01T04:38:19;25.15;;;11.65;;
68192;SDS011;55012;47.562;18.414;2023-03-01T04:40:46;27.88;;;12.20;;
68192;SDS011;55012;47.562;18.414;2023-03-01T04:43:11;26.02;;;11.98;;
68192;SDS011;55012;47.562;18.414;2023-03-01T04:45:40;24.75;;;11.68;;
68192;SDS011;55012;47.562;18.414;2023-03-01T04:48:05;28.10;;;12.32;;
68192;SDS011;55012;47.562;18.414;2023-03-01T04:50:31;26.77;;;12.05;;
68192;SDS011;55012;47.562;18.414;2023-03-01T04:52:57;24.02;;;11.80;;
68192;SDS011;55012;47.562;18.414;2023-03-01T04:55:24;27.52;;;12.50;;
68192;SDS011;55012;47.562;18.414;2023-03-01T04:57:53;27.83;;;12.45;;
68192;SDS011;55012;47.562;18.414;2023-03-01T05:00:19;26.52;;;12.68;;
68192;SDS011;55012;47.562;18.414;2023-03-01T05:02:45;28.80;;;13.02;;
68192;SDS011;55012;47.562;18.414;2023-03-01T05:05:39;28.67;;;11.60;;
68192;SDS011;55012;47.562;18.414;2023-03-01T05:08:07;26.05;;;11.45;;
68192;SDS011;55012;47.562;18.414;2023-03-01T05:10:33;23.50;;;11.50;;
68192;SDS011;55012;47.562;18.414;2023-03-01T05:13:01;24.65;;;11.57;;
68192;SDS011;55012;47.562;18.414;2023-03-01T05:15:28;25.92;;;12.23;;
68192;SDS011;55012;47.562;18.414;2023-03-01T05:17:55;28.05;;;12.30;;
68192;SDS011;55012;47.562;18.414;2023-03-01T05:20:24;26.25;;;11.88;;
68192;SDS011;55012;47.562;18.414;2023-03-01T05:22:51;28.65;;;12.10;;
68192;SDS011;55012;47.562;18.414;2023-03-01T05:25:17;24.90;;;11.70;;
68192;SDS011;55012;47.562;18.414;2023-03-01T05:27:42;21.65;;;10.38;;
68192;SDS011;55012;47.562;18.414;2023-03-01T05:30:08;22.30;;;10.60;;
68192;SDS011;55012;47.562;18.414;2023-03-01T05:32:45;22.05;;;10.18;;
68192;SDS011;55012;47.562;18.414;2023-03-01T05:35:14;23.10;;;10.55;;
68192;SDS011;55012;47.562;18.414;2023-03-01T05:37:46;23.38;;;10.77;;
68192;SDS011;55012;47.562;18.414;2023-03-01T05:40:14;20.58;;;10.27;;
68192;SDS011;55012;47.562;18.414;2023-03-01T05:42:47;23.85;;;10.60;;
68192;SDS011;55012;47.562;18.414;2023-03-01T05:45:20;20.50;;;9.48;;
68192;SDS011;55012;47.562;18.414;2023-03-01T05:47:47;22.52;;;9.85;;
68192;SDS011;55012;47.562;18.414;2023-03-01T05:52:43;19.75;;;9.65;;
68192;SDS011;55012;47.562;18.414;2023-03-01T05:55:16;21.35;;;9.95;;
68192;SDS011;55012;47.562;18.414;2023-03-01T05:57:43;18.25;;;8.85;;
68192;SDS011;55012;47.562;18.414;2023-03-01T06:00:09;22.52;;;10.70;;
68192;SDS011;55012;47.562;18.414;2023-03-01T06:02:35;24.65;;;11.50;;
68192;SDS011;55012;47.562;18.414;2023-03-01T06:05:01;32.47;;;14.68;;
68192;SDS011;55012;47.562;18.414;2023-03-01T06:07:27;26.70;;;11.50;;
68192;SDS011;55012;47.562;18.414;2023-03-01T06:09:53;23.67;;;9.80;;
68192;SDS011;55012;47.562;18.414;2023-03-01T06:12:18;21.85;;;9.95;;
68192;SDS011;55012;47.562;18.414;2023-03-01T06:14:44;24.65;;;9.60;;
68192;SDS011;55012;47.562;18.414;2023-03-01T06:17:12;21.83;;;9.95;;
68192;SDS011;55012;47.562;18.414;2023-03-01T06:19:37;22.98;;;9.80;;
68192;SDS011;55012;47.562;18.414;2023-03-01T06:22:03;22.80;;;10.68;;
68192;SDS011;55012;47.562;18.414;2023-03-01T06:24:28;22.65;;;11.05;;
68192;SDS011;55012;47.562;18.414;2023-03-01T06:26:54;21.63;;;9.68;;
68192;SDS011;55012;47.562;18.414;2023-03-01T06:29:19;23.77;;;9.85;;
68192;SDS011;55012;47.562;18.414;2023-03-01T06:31:45;22.02;;;10.00;;
68192;SDS011;55012;47.562;18.414;2023-03-01T06:34:11;20.85;;;9.60;;
68192;SDS011;55012;47.562;18.414;2023-03-01T06:36:38;22.27;;;10.00;;
68192;SDS011;55012;47.562;18.414;2023-03-01T06:39:04;19.17;;;9.45;;
68192;SDS011;55012;47.562;18.414;2023-03-01T06:41:31;22.38;;;9.68;;
68192;SDS011;55012;47.562;18.414;2023-03-01T06:43:56;20.60;;;10.18;;
68192;SDS011;55012;47.562;18.414;2023-03-01T06:46:22;22.27;;;9.90;;
68192;SDS011;55012;47.562;18.414;2023-03-01T06:48:47;20.30;;;9.85;;
68192;SDS011;55012;47.562;18.414;2023-03-01T06:51:13;20.30;;;9.55;;
68192;SDS011;55012;47.562;18.414;2023-03-01T06:53:38;20.10;;;9.93;;
68192;SDS011;55012;47.562;18.414;2023-03-01T06:56:03;21.70;;;9.90;;
68192;SDS011;55012;47.562;18.414;2023-03-01T06:58:29;18.98;;;9.43;;
68192;SDS011;55012;47.562;18.414;2023-03-01T07:00:54;20.10;;;9.70;;
68192;SDS011;55012;47.562;18.414;2023-03-01T07:03:20;19.52;;;8.82;;
68192;SDS011;55012;47.562;18.414;2023-03-01T07:05:48;21.20;;;9.90;;
68192;SDS011;55012;47.562;18.414;2023-03-01T07:08:14;23.05;;;9.30;;
68192;SDS011;55012;47.562;18.414;2023-03-01T07:10:39;27.27;;;9.35;;
68192;SDS011;55012;47.562;18.414;2023-03-01T07:13:05;19.38;;;9.10;;
68192;SDS011;55012;47.562;18.414;2023-03-01T07:15:32;23.70;;;9.65;;
68192;SDS011;55012;47.562;18.414;2023-03-01T07:17:57;19.58;;;9.00;;
68192;SDS011;55012;47.562;18.414;2023-03-01T07:20:23;22.50;;;10.65;;
68192;SDS011;55012;47.562;18.414;2023-03-01T07:22:50;17.55;;;8.50;;
68192;SDS011;55012;47.562;18.414;2023-03-01T07:25:19;17.90;;;7.82;;
68192;SDS011;55012;47.562;18.414;2023-03-01T07:27:49;26.88;;;9.40;;
68192;SDS011;55012;47.562;18.414;2023-03-01T07:30:16;20.08;;;8.88;;
68192;SDS011;55012;47.562;18.414;2023-03-01T07:32:42;21.52;;;8.38;;
68192;SDS011;55012;47.562;18.414;2023-03-01T07:35:07;21.63;;;9.32;;
68192;SDS011;55012;47.562;18.414;2023-03-01T07:37:33;23.55;;;10.00;;
68192;SDS011;55012;47.562;18.414;2023-03-01T07:39:58;17.55;;;8.75;;
68192;SDS011;55012;47.562;18.414;2023-03-01T07:42:24;21.20;;;9.32;;
68192;SDS011;55012;47.562;18.414;2023-03-01T07:44:49;19.42;;;9.40;;
68192;SDS011;55012;47.562;18.414;2023-03-01T07:47:15;20.52;;;9.00;;
68192;SDS011;55012;47.562;18.414;2023-03-01T07:49:40;18.20;;;8.43;;
68192;SDS011;55012;47.562;18.414;2023-03-01T07:52:06;21.15;;;9.25;;
68192;SDS011;55012;47.562;18.414;2023-03-01T07:54:31;24.50;;;9.65;;
68192;SDS011;55012;47.562;18.414;2023-03-01T07:56:57;18.30;;;8.77;;
68192;SDS011;55012;47.562;18.414;2023-03-01T07:59:22;18.92;;;9.00;;
68192;SDS011;55012;47.562;18.414;2023-03-01T08:01:53;20.90;;;8.80;;
68192;SDS011;55012;47.562;18.414;2023-03-01T08:04:19;17.90;;;9.10;;
68192;SDS011;55012;47.562;18.414;2023-03-01T08:06:45;25.40;;;10.77;;
68192;SDS011;55012;47.562;18.414;2023-03-01T08:09:13;20.00;;;8.65;;
68192;SDS011;55012;47.562;18.414;2023-03-01T08:11:39;18.63;;;8.57;;
68192;SDS011;55012;47.562;18.414;2023-03-01T08:14:05;27.67;;;12.68;;
68192;SDS011;55012;47.562;18.414;2023-03-01T08:16:31;26.15;;;11.98;;
68192;SDS011;55012;47.562;18.414;2023-03-01T08:19:02;24.92;;;11.52;;
68192;SDS011;55012;47.562;18.414;2023-03-01T08:21:32;23.65;;;10.75;;
68192;SDS011;55012;47.562;18.414;2023-03-01T08:23:59;25.40;;;9.77;;
68192;SDS011;55012;47.562;18.414;2023-03-01T08:26:25;20.67;;;9.45;;
68192;SDS011;55012;47.562;18.414;2023-03-01T08:28:51;16.98;;;8.50;;
68192;SDS011;55012;47.562;18.414;2023-03-01T08:33:50;18.45;;;8.57;;
68192;SDS011;55012;47.562;18.414;2023-03-01T08:36:20;20.20;;;9.20;;
68192;SDS011;55012;47.562;18.414;2023-03-01T08:38:49;22.85;;;9.93;;
68192;SDS011;55012;47.562;18.414;2023-03-01T08:41:15;21.33;;;8.88;;
68192;SDS011;55012;47.562;18.414;2023-03-01T08:43:41;17.05;;;8.60;;
68192;SDS011;55012;47.562;18.414;2023-03-01T08:46:07;18.42;;;8.93;;
68192;SDS011;55012;47.562;18.414;2023-03-01T08:48:32;22.25;;;9.50;;
68192;SDS011;55012;47.562;18.414;2023-03-01T08:51:06;18.77;;;9.13;;
68192;SDS011;55012;47.562;18.414;2023-03-01T08:53:33;19.35;;;8.52;;
68192;SDS011;55012;47.562;18.414;2023-03-01T08:56:02;22.75;;;10.75;;
68192;SDS011;55012;47.562;18.414;2023-03-01T08:58:28;23.63;;;10.07;;
68192;SDS011;55012;47.562;18.414;2023-03-01T09:00:53;30.88;;;12.02;;
68192;SDS011;55012;47.562;18.414;2023-03-01T09:03:21;27.85;;;12.30;;
68192;SDS011;55012;47.562;18.414;2023-03-01T09:05:47;35.90;;;14.38;;
68192;SDS011;55012;47.562;18.414;2023-03-01T09:08:14;40.13;;;14.48;;
68192;SDS011;55012;47.562;18.414;2023-03-01T09:10:39;38.03;;;14.63;;
68192;SDS011;55012;47.562;18.414;2023-03-01T09:13:05;32.35;;;13.73;;
68192;SDS011;55012;47.562;18.414;2023-03-01T09:15:30;37.70;;;15.85;;
68192;SDS011;55012;47.562;18.414;2023-03-01T09:17:56;31.33;;;13.57;;
68192;SDS011;55012;47.562;18.414;2023-03-01T09:20:21;24.95;;;11.93;;
68192;SDS011;55012;47.562;18.414;2023-03-01T09:22:47;23.20;;;10.52;;
68192;SDS011;55012;47.562;18.414;2023-03-01T09:25:12;19.27;;;9.50;;
68192;SDS011;55012;47.562;18.414;2023-03-01T09:27:38;17.15;;;8.98;;
68192;SDS011;55012;47.562;18.414;2023-03-01T09:30:03;26.20;;;11.63;;
68192;SDS011;55012;47.562;18.414;2023-03-01T09:32:30;27.75;;;10.93;;
68192;SDS011;55012;47.562;18.414;2023-03-01T09:34:56;24.80;;;11.32;;
68192;SDS011;55012;47.562;18.414;2023-03-01T09:37:34;26.05;;;11.45;;
68192;SDS011;55012;47.562;18.414;2023-03-01T09:40:02;19.52;;;10.30;;
68192;SDS011;55012;47.562;18.414;2023-03-01T09:42:29;21.00;;;10.50;;
68192;SDS011;55012;47.562;18.414;2023-03-01T09:45:04;27.30;;;10.93;;
68192;SDS011;55012;47.562;18.414;2023-03-01T09:47:36;22.90;;;9.57;;
68192;SDS011;55012;47.562;18.414;2023-03-01T09:55:12;25.88;;;8.20;;
68192;SDS011;55012;47.562;18.414;2023-03-01T10:00:20;16.95;;;7.47;;
68192;SDS011;55012;47.562;18.414;2023-03-01T10:02:57;13.05;;;7.05;;
68192;SDS011;55012;47.562;18.414;2023-03-01T10:05:41;21.08;;;8.35;;
68192;SDS011;55012;47.562;18.414;2023-03-01T10:10:50;19.23;;;7.60;;
68192;SDS011;55012;47.562;18.414;2023-03-01T10:13:22;15.55;;;6.85;;
68192;SDS011;55012;47.562;18.414;2023-03-01T10:15:56;16.10;;;7.85;;
68192;SDS011;55012;47.562;18.414;2023-03-01T10:18:27;15.77;;;7.05;;
68192;SDS011;55012;47.562;18.414;2023-03-01T10:21:17;13.27;;;7.15;;
68192;SDS011;55012;47.562;18.414;2023-03-01T10:23:44;13.40;;;7.22;;
68192;SDS011;55012;47.562;18.414;2023-03-01T10:29:01;14.57;;;7.32;;
68192;SDS011;55012;47.562;18.414;2023-03-01T10:36:44;20.00;;;8.98;;
68192;SDS011;55012;47.562;18.414;2023-03-01T10:39:18;18.83;;;8.88;;
68192;SDS011;55012;47.562;18.414;2023-03-01T10:41:58;19.33;;;8.88;;
68192;SDS011;55012;47.562;18.414;2023-03-01T10:47:08;30.35;;;11.95;;
68192;SDS011;55012;47.562;18.414;2023-03-01T10:49:39;18.42;;;9.52;;
68192;SDS011;55012;47.562;18.414;2023-03-01T10:52:20;21.45;;;10.57;;
68192;SDS011;55012;47.562;18.414;2023-03-01T10:54:51;20.17;;;9.75;;
68192;SDS011;55012;47.562;18.414;2023-03-01T10:57:37;20.08;;;10.18;;
68192;SDS011;55012;47.562;18.414;2023-03-01T11:02:49;21.25;;;10.77;;
68192;SDS011;55012;47.562;18.414;2023-03-01T11:05:18;20.13;;;10.38;;
68192;SDS011;55012;47.562;18.414;2023-03-01T11:10:35;20.13;;;10.45;;
68192;SDS011;55012;47.562;18.414;2023-03-01T11:15:40;21.75;;;10.30;;
68192;SDS011;55012;47.562;18.414;2023-03-01T11:18:18;19.75;;;10.15;;
68192;SDS011;55012;47.562;18.414;2023-03-01T11:20:45;20.63;;;10.57;;
68192;SDS011;55012;47.562;18.414;2023-03-01T11:23:14;22.42;;;10.75;;
68192;SDS011;55012;47.562;18.414;2023-03-01T11:25:42;21.75;;;11.38;;
68192;SDS011;55012;47.562;18.414;2023-03-01T11:28:12;19.92;;;10.77;;
68192;SDS011;55012;47.562;18.414;2023-03-01T11:31:00;19.17;;;10.50;;
68192;SDS011;55012;47.562;18.414;2023-03-01T11:38:32;21.65;;;10.63;;
68192;SDS011;55012;47.562;18.414;2023-03-01T11:41:20;19.77;;;10.68;;
68192;SDS011;55012;47.562;18.414;2023-03-01T11:43:52;19.25;;;10.55;;
68192;SDS011;55012;47.562;18.414;2023-03-01T11:51:56;21.83;;;11.50;;
68192;SDS011;55012;47.562;18.414;2023-03-01T12:06:26;23.13;;;11.18;;
68192;SDS011;55012;47.562;18.414;2023-03-01T12:11:38;18.05;;;10.27;;
68192;SDS011;55012;47.562;18.414;2023-03-01T12:20:06;23.38;;;12.30;;
68192;SDS011;55012;47.562;18.414;2023-03-01T12:22:50;22.20;;;11.68;;
68192;SDS011;55012;47.562;18.414;2023-03-01T12:25:33;22.02;;;11.27;;
68192;SDS011;55012;47.562;18.414;2023-03-01T12:28:09;22.05;;;11.40;;
68192;SDS011;55012;47.562;18.414;2023-03-01T12:50:24;26.13;;;11.88;;
68192;SDS011;55012;47.562;18.414;2023-03-01T12:52:56;22.13;;;10.77;;
68192;SDS011;55012;47.562;18.414;2023-03-01T12:58:00;22.75;;;11.73;;
68192;SDS011;55012;47.562;18.414;2023-03-01T13:00:43;22.48;;;11.27;;
68192;SDS011;55012;47.562;18.414;2023-03-01T13:03:24;24.35;;;12.50;;
68192;SDS011;55012;47.562;18.414;2023-03-01T13:06:15;22.83;;;10.75;;
68192;SDS011;55012;47.562;18.414;2023-03-01T13:09:27;21.50;;;10.95;;
68192;SDS011;55012;47.562;18.414;2023-03-01T13:11:42;21.65;;;11.20;;
68192;SDS011;55012;47.562;18.414;2023-03-01T13:16:51;23.20;;;11.23;;
68192;SDS011;55012;47.562;18.414;2023-03-01T13:19:19;22.80;;;11.32;;
68192;SDS011;55012;47.562;18.414;2023-03-01T13:21:47;20.25;;;10.40;;
68192;SDS011;55012;47.562;18.414;2023-03-01T13:24:27;22.38;;;10.85;;
68192;SDS011;55012;47.562;18.414;2023-03-01T13:29:51;21.27;;;11.32;;
68192;SDS011;55012;47.562;18.414;2023-03-01T13:32:23;21.77;;;11.05;;
68192;SDS011;55012;47.562;18.414;2023-03-01T13:34:51;19.75;;;10.65;;
68192;SDS011;55012;47.562;18.414;2023-03-01T13:37:19;21.23;;;11.18;;
68192;SDS011;55012;47.562;18.414;2023-03-01T13:39:51;23.38;;;11.10;;
68192;SDS011;55012;47.562;18.414;2023-03-01T13:42:30;19.92;;;10.48;;
68192;SDS011;55012;47.562;18.414;2023-03-01T13:44:56;21.13;;;10.75;;
68192;SDS011;55012;47.562;18.414;2023-03-01T13:47:22;26.25;;;11.32;;
68192;SDS011;55012;47.562;18.414;2023-03-01T13:49:49;19.98;;;11.00;;
68192;SDS011;55012;47.562;18.414;2023-03-01T13:55:06;22.00;;;10.45;;
68192;SDS011;55012;47.562;18.414;2023-03-01T13:57:39;20.47;;;10.50;;
68192;SDS011;55012;47.562;18.414;2023-03-01T14:00:07;19.25;;;9.95;;
68192;SDS011;55012;47.562;18.414;2023-03-01T14:05:59;21.23;;;10.50;;
68192;SDS011;55012;47.562;18.414;2023-03-01T14:08:27;22.23;;;10.07;;
68192;SDS011;55012;47.562;18.414;2023-03-01T14:21:13;19.33;;;9.63;;
68192;SDS011;55012;47.562;18.414;2023-03-01T14:23:39;16.45;;;8.98;;
68192;SDS011;55012;47.562;18.414;2023-03-01T14:26:07;21.38;;;10.27;;
68192;SDS011;55012;47.562;18.414;2023-03-01T14:28:34;19.77;;;9.77;;
68192;SDS011;55012;47.562;18.414;2023-03-01T14:31:21;21.48;;;9.25;;
68192;SDS011;55012;47.562;18.414;2023-03-01T14:33:55;17.33;;;8.38;;
68192;SDS011;55012;47.562;18.414;2023-03-01T14:36:25;16.70;;;8.38;;
68192;SDS011;55012;47.562;18.414;2023-03-01T14:38:52;17.70;;;9.18;;
68192;SDS011;55012;47.562;18.414;2023-03-01T14:41:20;20.00;;;9.23;;
68192;SDS011;55012;47.562;18.414;2023-03-01T14:43:52;19.25;;;9.77;;
68192;SDS011;55012;47.562;18.414;2023-03-01T14:48:49;16.65;;;8.38;;
68192;SDS011;55012;47.562;18.414;2023-03-01T14:51:16;15.85;;;8.70;;
68192;SDS011;55012;47.562;18.414;2023-03-01T14:53:41;17.90;;;9.18;;
68192;SDS011;55012;47.562;18.414;2023-03-01T14:56:12;18.55;;;9.10;;
68192;SDS011;55012;47.562;18.414;2023-03-01T14:58:39;17.20;;;8.77;;
68192;SDS011;55012;47.562;18.414;2023-03-01T15:01:04;16.70;;;8.75;;
68192;SDS011;55012;47.562;18.414;2023-03-01T15:03:32;19.20;;;9.05;;
68192;SDS011;55012;47.562;18.414;2023-03-01T15:06:02;17.80;;;8.50;;
68192;SDS011;55012;47.562;18.414;2023-03-01T15:08:30;16.08;;;8.65;;
68192;SDS011;55012;47.562;18.414;2023-03-01T15:13:43;18.25;;;9.52;;
68192;SDS011;55012;47.562;18.414;2023-03-01T15:16:12;15.82;;;8.93;;
68192;SDS011;55012;47.562;18.414;2023-03-01T15:18:48;19.00;;;9.73;;
68192;SDS011;55012;47.562;18.414;2023-03-01T15:21:23;17.40;;;9.45;;
68192;SDS011;55012;47.562;18.414;2023-03-01T15:23:53;19.98;;;10.30;;
68192;SDS011;55012;47.562;18.414;2023-03-01T15:26:22;17.80;;;9.45;;
68192;SDS011;55012;47.562;18.414;2023-03-01T15:28:52;18.15;;;9.50;;
68192;SDS011;55012;47.562;18.414;2023-03-01T15:31:34;16.73;;;9.02;;
68192;SDS011;55012;47.562;18.414;2023-03-01T15:34:07;21.02;;;12.15;;
68192;SDS011;55012;47.562;18.414;2023-03-01T15:36:47;17.38;;;9.60;;
68192;SDS011;55012;47.562;18.414;2023-03-01T15:39:49;16.65;;;8.93;;
68192;SDS011;55012;47.562;18.414;2023-03-01T15:45:20;18.42;;;9.90;;
68192;SDS011;55012;47.562;18.414;2023-03-01T15:47:59;16.17;;;9.13;;
68192;SDS011;55012;47.562;18.414;2023-03-01T15:50:31;16.77;;;9.45;;
68192;SDS011;55012;47.562;18.414;2023-03-01T15:53:01;18.40;;;9.93;;
68192;SDS011;55012;47.562;18.414;2023-03-01T15:55:31;19.75;;;11.10;;
68192;SDS011;55012;47.562;18.414;2023-03-01T15:57:59;19.17;;;10.10;;
68192;SDS011;55012;47.562;18.414;2023-03-01T16:00:28;19.85;;;9.82;;
68192;SDS011;55012;47.562;18.414;2023-03-01T16:02:54;18.08;;;10.25;;
68192;SDS011;55012;47.562;18.414;2023-03-01T16:07:50;18.80;;;10.43;;
68192;SDS011;55012;47.562;18.414;2023-03-01T16:10:17;23.75;;;12.20;;
68192;SDS011;55012;47.562;18.414;2023-03-01T16:12:42;25.08;;;12.10;;
68192;SDS011;55012;47.562;18.414;2023-03-01T16:17:46;26.50;;;13.48;;
68192;SDS011;55012;47.562;18.414;2023-03-01T16:20:11;27.25;;;12.82;;
68192;SDS011;55012;47.562;18.414;2023-03-01T16:22:40;25.73;;;12.27;;
68192;SDS011;55012;47.562;18.414;2023-03-01T16:25:10;20.58;;;10.95;;
68192;SDS011;55012;47.562;18.414;2023-03-01T16:27:37;32.67;;;13.75;;
68192;SDS011;55012;47.562;18.414;2023-03-01T16:30:04;23.83;;;11.35;;
68192;SDS011;55012;47.562;18.414;2023-03-01T16:32:30;26.95;;;13.82;;